Donceel, Belgium
Current Conditions -  °F | °C
As of 7:50 PM on Wednesday 26 Nov 2014 (Local Time) from EBLG Reporting Station
Broken Clouds Broken Clouds  
Wind Chill: 43°   Ceiling: 1000
Heat Index: 46°   Visibility: 6mi
Dew Point: 43°   Wind: 7mph
Humidity: 87%   Direction: 160°SSE
Pressure: 29.85"   Gusts: NA
Location:  50.65°N, 5.32°E
Report Text: EBLG 261850Z 16006KT 9999 BKN010 08/06 Q1011 TEMPO 4500 BR BKN006
Loading
Personal Weather Stations






























Interactive Weather Map New forecast layout! Learn more

10-Day Weather Forecast

Advertisements
Track Severe Weather on mobile